sensor_id;sensor_type;location;lat;lon;timestamp;temperature;humidity
45535;DHT22;35892;48.798;9.698;2023-02-03T00:01:20;6.40;99.90
45535;DHT22;35892;48.798;9.698;2023-02-03T00:03:52;6.40;99.90
45535;DHT22;35892;48.798;9.698;2023-02-03T00:06:21;6.40;99.90
45535;DHT22;35892;48.798;9.698;2023-02-03T00:08:48;6.50;99.90
45535;DHT22;35892;48.798;9.698;2023-02-03T00:11:19;6.40;99.90
45535;DHT22;35892;48.798;9.698;2023-02-03T00:13:51;6.50;99.90
45535;DHT22;35892;48.798;9.698;2023-02-03T00:16:17;6.50;99.90
45535;DHT22;35892;48.798;9.698;2023-02-03T00:18:46;6.50;99.90
45535;DHT22;35892;48.798;9.698;2023-02-03T00:21:12;6.50;99.90
45535;DHT22;35892;48.798;9.698;2023-02-03T00:23:43;6.50;99.90
45535;DHT22;35892;48.798;9.698;2023-02-03T00:26:13;6.60;99.90
45535;DHT22;35892;48.798;9.698;2023-02-03T00:28:42;6.70;99.90
45535;DHT22;35892;48.798;9.698;2023-02-03T00:33:44;6.70;99.90
45535;DHT22;35892;48.798;9.698;2023-02-03T00:36:13;6.70;99.90
45535;DHT22;35892;48.798;9.698;2023-02-03T00:38:44;6.70;99.90
45535;DHT22;35892;48.798;9.698;2023-02-03T00:41:11;6.70;99.90
45535;DHT22;35892;48.798;9.698;2023-02-03T00:43:37;6.70;99.90
45535;DHT22;35892;48.798;9.698;2023-02-03T00:46:04;6.70;99.90
45535;DHT22;35892;48.798;9.698;2023-02-03T00:48:31;6.80;99.90
45535;DHT22;35892;48.798;9.698;2023-02-03T00:50:58;6.70;99.90
45535;DHT22;35892;48.798;9.698;2023-02-03T00:53:24;6.80;99.90
45535;DHT22;35892;48.798;9.698;2023-02-03T00:55:53;6.90;99.90
45535;DHT22;35892;48.798;9.698;2023-02-03T00:58:20;6.80;99.90
45535;DHT22;35892;48.798;9.698;2023-02-03T01:00:49;6.80;99.90
45535;DHT22;35892;48.798;9.698;2023-02-03T01:03:18;7.00;99.90
45535;DHT22;35892;48.798;9.698;2023-02-03T01:05:45;6.90;99.90
45535;DHT22;35892;48.798;9.698;2023-02-03T01:08:11;6.90;99.90
45535;DHT22;35892;48.798;9.698;2023-02-03T01:10:42;6.90;99.90
45535;DHT22;35892;48.798;9.698;2023-02-03T01:13:12;6.90;99.90
45535;DHT22;35892;48.798;9.698;2023-02-03T01:15:45;6.90;99.90
45535;DHT22;35892;48.798;9.698;2023-02-03T01:18:16;6.80;99.90
45535;DHT22;35892;48.798;9.698;2023-02-03T01:20:45;6.80;99.90
45535;DHT22;35892;48.798;9.698;2023-02-03T01:23:12;6.80;99.90
45535;DHT22;35892;48.798;9.698;2023-02-03T01:25:43;6.90;99.90
45535;DHT22;35892;48.798;9.698;2023-02-03T01:28:10;6.90;99.90
45535;DHT22;35892;48.798;9.698;2023-02-03T01:30:37;6.90;99.90
45535;DHT22;35892;48.798;9.698;2023-02-03T01:33:04;6.80;99.90
45535;DHT22;35892;48.798;9.698;2023-02-03T01:35:35;6.80;99.90
45535;DHT22;35892;48.798;9.698;2023-02-03T01:38:02;6.80;99.90
45535;DHT22;35892;48.798;9.698;2023-02-03T01:40:31;6.80;99.90
45535;DHT22;35892;48.798;9.698;2023-02-03T01:42:57;6.70;99.90
45535;DHT22;35892;48.798;9.698;2023-02-03T01:45:24;6.80;99.90
45535;DHT22;35892;48.798;9.698;2023-02-03T01:47:54;6.90;99.90
45535;DHT22;35892;48.798;9.698;2023-02-03T01:50:29;6.90;99.90
45535;DHT22;35892;48.798;9.698;2023-02-03T01:52:57;6.80;99.90
45535;DHT22;35892;48.798;9.698;2023-02-03T01:55:30;6.80;99.90
45535;DHT22;35892;48.798;9.698;2023-02-03T01:58:10;6.80;99.90
45535;DHT22;35892;48.798;9.698;2023-02-03T02:00:42;6.80;99.90
45535;DHT22;35892;48.798;9.698;2023-02-03T02:03:11;6.80;99.90
45535;DHT22;35892;48.798;9.698;2023-02-03T02:05:43;6.80;99.90
45535;DHT22;35892;48.798;9.698;2023-02-03T02:08:14;6.80;99.90
45535;DHT22;35892;48.798;9.698;2023-02-03T02:10:43;6.90;99.90
45535;DHT22;35892;48.798;9.698;2023-02-03T02:13:10;6.90;99.90
45535;DHT22;35892;48.798;9.698;2023-02-03T02:15:43;6.80;99.90
45535;DHT22;35892;48.798;9.698;2023-02-03T02:18:19;6.80;99.90
45535;DHT22;35892;48.798;9.698;2023-02-03T02:20:55;6.90;99.90
45535;DHT22;35892;48.798;9.698;2023-02-03T02:34:03;6.70;99.90
45535;DHT22;35892;48.798;9.698;2023-02-03T02:39:38;6.80;99.90
45535;DHT22;35892;48.798;9.698;2023-02-03T02:42:20;7.00;99.90
45535;DHT22;35892;48.798;9.698;2023-02-03T02:44:55;6.90;99.90
45535;DHT22;35892;48.798;9.698;2023-02-03T02:47:26;6.90;99.90
45535;DHT22;35892;48.798;9.698;2023-02-03T02:50:00;6.90;99.90
45535;DHT22;35892;48.798;9.698;2023-02-03T02:52:29;6.90;99.90
45535;DHT22;35892;48.798;9.698;2023-02-03T02:54:58;6.90;99.90
45535;DHT22;35892;48.798;9.698;2023-02-03T02:57:28;6.80;99.90
45535;DHT22;35892;48.798;9.698;2023-02-03T02:59:58;6.80;99.90
45535;DHT22;35892;48.798;9.698;2023-02-03T03:02:33;6.80;99.90
45535;DHT22;35892;48.798;9.698;2023-02-03T03:05:04;6.70;99.90
45535;DHT22;35892;48.798;9.698;2023-02-03T03:07:37;6.80;99.90
45535;DHT22;35892;48.798;9.698;2023-02-03T03:10:07;6.80;99.90
45535;DHT22;35892;48.798;9.698;2023-02-03T03:12:38;6.90;99.90
45535;DHT22;35892;48.798;9.698;2023-02-03T03:15:06;6.90;99.90
45535;DHT22;35892;48.798;9.698;2023-02-03T03:17:36;6.90;99.90
45535;DHT22;35892;48.798;9.698;2023-02-03T03:20:06;6.90;99.90
45535;DHT22;35892;48.798;9.698;2023-02-03T03:22:34;6.80;99.90
45535;DHT22;35892;48.798;9.698;2023-02-03T03:25:14;6.90;99.90
45535;DHT22;35892;48.798;9.698;2023-02-03T03:27:47;6.90;99.90
45535;DHT22;35892;48.798;9.698;2023-02-03T03:30:16;7.00;99.90
45535;DHT22;35892;48.798;9.698;2023-02-03T03:32:45;6.80;99.90
45535;DHT22;35892;48.798;9.698;2023-02-03T03:35:16;6.70;99.90
45535;DHT22;35892;48.798;9.698;2023-02-03T03:37:55;6.80;99.90
45535;DHT22;35892;48.798;9.698;2023-02-03T03:40:28;6.80;99.90
45535;DHT22;35892;48.798;9.698;2023-02-03T03:45:23;6.90;99.90
45535;DHT22;35892;48.798;9.698;2023-02-03T03:48:10;6.90;99.90
45535;DHT22;35892;48.798;9.698;2023-02-03T03:53:27;6.90;99.90
45535;DHT22;35892;48.798;9.698;2023-02-03T03:55:58;6.80;99.90
45535;DHT22;35892;48.798;9.698;2023-02-03T03:58:27;6.80;99.90
45535;DHT22;35892;48.798;9.698;2023-02-03T04:00:59;6.80;99.90
45535;DHT22;35892;48.798;9.698;2023-02-03T04:03:31;6.90;99.90
45535;DHT22;35892;48.798;9.698;2023-02-03T04:05:58;6.80;99.90
45535;DHT22;35892;48.798;9.698;2023-02-03T04:08:27;7.10;99.90
45535;DHT22;35892;48.798;9.698;2023-02-03T04:10:54;7.00;99.90
45535;DHT22;35892;48.798;9.698;2023-02-03T04:13:21;7.00;99.90
45535;DHT22;35892;48.798;9.698;2023-02-03T04:15:47;7.00;99.90
45535;DHT22;35892;48.798;9.698;2023-02-03T04:18:16;7.00;99.90
45535;DHT22;35892;48.798;9.698;2023-02-03T04:20:46;6.90;99.90
45535;DHT22;35892;48.798;9.698;2023-02-03T04:23:12;7.00;99.90
45535;DHT22;35892;48.798;9.698;2023-02-03T04:25:39;7.00;99.90
45535;DHT22;35892;48.798;9.698;2023-02-03T04:28:06;6.90;99.90
45535;DHT22;35892;48.798;9.698;2023-02-03T04:30:32;6.80;99.90
45535;DHT22;35892;48.798;9.698;2023-02-03T04:32:59;6.90;99.90
45535;DHT22;35892;48.798;9.698;2023-02-03T04:35:28;7.00;99.90
45535;DHT22;35892;48.798;9.698;2023-02-03T04:37:57;7.00;99.90
45535;DHT22;35892;48.798;9.698;2023-02-03T04:40:24;7.00;99.90
45535;DHT22;35892;48.798;9.698;2023-02-03T04:42:51;7.10;99.90
45535;DHT22;35892;48.798;9.698;2023-02-03T04:45:17;7.20;99.90
45535;DHT22;35892;48.798;9.698;2023-02-03T04:47:50;7.10;99.90
45535;DHT22;35892;48.798;9.698;2023-02-03T04:50:20;7.00;99.90
45535;DHT22;35892;48.798;9.698;2023-02-03T04:52:46;6.90;99.90
45535;DHT22;35892;48.798;9.698;2023-02-03T04:55:13;6.80;99.90
45535;DHT22;35892;48.798;9.698;2023-02-03T04:57:40;6.70;99.90
45535;DHT22;35892;48.798;9.698;2023-02-03T05:00:07;6.70;99.90
45535;DHT22;35892;48.798;9.698;2023-02-03T05:02:34;6.70;99.90
45535;DHT22;35892;48.798;9.698;2023-02-03T05:05:00;6.90;99.90
45535;DHT22;35892;48.798;9.698;2023-02-03T05:07:29;6.90;99.90
45535;DHT22;35892;48.798;9.698;2023-02-03T05:09:56;6.80;99.90
45535;DHT22;35892;48.798;9.698;2023-02-03T05:12:23;6.70;99.90
45535;DHT22;35892;48.798;9.698;2023-02-03T05:14:49;6.80;99.90
45535;DHT22;35892;48.798;9.698;2023-02-03T05:17:23;6.70;99.90
45535;DHT22;35892;48.798;9.698;2023-02-03T05:19:50;6.70;99.90
45535;DHT22;35892;48.798;9.698;2023-02-03T05:22:19;6.70;99.90
45535;DHT22;35892;48.798;9.698;2023-02-03T05:24:46;6.70;99.90
45535;DHT22;35892;48.798;9.698;2023-02-03T05:27:12;6.70;99.90
45535;DHT22;35892;48.798;9.698;2023-02-03T05:29:39;6.70;99.90
45535;DHT22;35892;48.798;9.698;2023-02-03T05:32:08;6.50;99.90
45535;DHT22;35892;48.798;9.698;2023-02-03T05:34:35;6.50;99.90
45535;DHT22;35892;48.798;9.698;2023-02-03T05:37:02;6.40;99.90
45535;DHT22;35892;48.798;9.698;2023-02-03T05:39:29;6.40;99.90
45535;DHT22;35892;48.798;9.698;2023-02-03T05:41:55;6.40;99.90
45535;DHT22;35892;48.798;9.698;2023-02-03T05:44:24;6.40;99.90
45535;DHT22;35892;48.798;9.698;2023-02-03T05:46:52;6.30;99.90
45535;DHT22;35892;48.798;9.698;2023-02-03T05:49:19;6.40;99.90
45535;DHT22;35892;48.798;9.698;2023-02-03T05:51:49;6.50;99.90
45535;DHT22;35892;48.798;9.698;2023-02-03T05:54:18;6.50;99.90
45535;DHT22;35892;48.798;9.698;2023-02-03T05:56:47;6.50;99.90
45535;DHT22;35892;48.798;9.698;2023-02-03T05:59:13;6.40;99.90
45535;DHT22;35892;48.798;9.698;2023-02-03T06:01:42;6.30;99.90
45535;DHT22;35892;48.798;9.698;2023-02-03T06:04:11;6.30;99.90
45535;DHT22;35892;48.798;9.698;2023-02-03T06:06:41;6.30;99.90
45535;DHT22;35892;48.798;9.698;2023-02-03T06:09:10;6.30;99.90
45535;DHT22;35892;48.798;9.698;2023-02-03T06:11:36;6.30;99.90
45535;DHT22;35892;48.798;9.698;2023-02-03T06:14:03;6.30;99.90
45535;DHT22;35892;48.798;9.698;2023-02-03T06:16:30;6.30;99.90
45535;DHT22;35892;48.798;9.698;2023-02-03T06:18:56;6.30;99.90
45535;DHT22;35892;48.798;9.698;2023-02-03T06:21:27;6.40;99.90
45535;DHT22;35892;48.798;9.698;2023-02-03T06:23:56;6.40;99.90
45535;DHT22;35892;48.798;9.698;2023-02-03T06:26:23;6.30;99.90
45535;DHT22;35892;48.798;9.698;2023-02-03T06:28:52;6.40;99.90
45535;DHT22;35892;48.798;9.698;2023-02-03T06:31:19;6.40;99.90
45535;DHT22;35892;48.798;9.698;2023-02-03T06:33:48;6.30;99.90
45535;DHT22;35892;48.798;9.698;2023-02-03T06:36:15;6.30;99.90
45535;DHT22;35892;48.798;9.698;2023-02-03T06:38:44;6.30;99.90
45535;DHT22;35892;48.798;9.698;2023-02-03T06:41:11;6.30;99.90
45535;DHT22;35892;48.798;9.698;2023-02-03T06:43:40;6.40;99.90
45535;DHT22;35892;48.798;9.698;2023-02-03T06:46:09;6.40;99.90
45535;DHT22;35892;48.798;9.698;2023-02-03T06:48:36;6.30;99.90
45535;DHT22;35892;48.798;9.698;2023-02-03T06:51:02;6.30;99.90
45535;DHT22;35892;48.798;9.698;2023-02-03T06:53:31;6.30;99.90
45535;DHT22;35892;48.798;9.698;2023-02-03T06:55:57;6.30;99.90
45535;DHT22;35892;48.798;9.698;2023-02-03T06:58:27;6.30;99.90
45535;DHT22;35892;48.798;9.698;2023-02-03T07:00:55;6.40;99.90
45535;DHT22;35892;48.798;9.698;2023-02-03T07:03:21;6.40;99.90
45535;DHT22;35892;48.798;9.698;2023-02-03T07:05:48;6.30;99.90
45535;DHT22;35892;48.798;9.698;2023-02-03T07:08:17;6.40;99.90
45535;DHT22;35892;48.798;9.698;2023-02-03T07:10:44;6.40;99.90
45535;DHT22;35892;48.798;9.698;2023-02-03T07:13:13;6.40;99.90
45535;DHT22;35892;48.798;9.698;2023-02-03T07:15:40;6.40;99.90
45535;DHT22;35892;48.798;9.698;2023-02-03T07:18:09;6.30;99.90
45535;DHT22;35892;48.798;9.698;2023-02-03T07:20:39;6.30;99.90
45535;DHT22;35892;48.798;9.698;2023-02-03T07:23:06;6.30;99.90
45535;DHT22;35892;48.798;9.698;2023-02-03T07:25:33;6.40;99.90
45535;DHT22;35892;48.798;9.698;2023-02-03T07:28:00;6.40;99.90
45535;DHT22;35892;48.798;9.698;2023-02-03T07:30:31;6.50;99.90
45535;DHT22;35892;48.798;9.698;2023-02-03T07:33:00;6.50;99.90
45535;DHT22;35892;48.798;9.698;2023-02-03T07:35:33;6.40;99.90
45535;DHT22;35892;48.798;9.698;2023-02-03T07:38:03;6.50;99.90
45535;DHT22;35892;48.798;9.698;2023-02-03T07:40:30;6.50;99.90
45535;DHT22;35892;48.798;9.698;2023-02-03T07:42:59;6.50;99.90
45535;DHT22;35892;48.798;9.698;2023-02-03T07:45:27;6.50;99.90
45535;DHT22;35892;48.798;9.698;2023-02-03T07:47:54;6.50;99.90
45535;DHT22;35892;48.798;9.698;2023-02-03T07:50:21;6.50;99.90
45535;DHT22;35892;48.798;9.698;2023-02-03T07:52:50;6.60;99.90
45535;DHT22;35892;48.798;9.698;2023-02-03T07:55:17;6.60;99.90
45535;DHT22;35892;48.798;9.698;2023-02-03T07:57:44;6.50;99.90
45535;DHT22;35892;48.798;9.698;2023-02-03T08:00:11;6.40;99.90
45535;DHT22;35892;48.798;9.698;2023-02-03T08:02:40;6.40;99.90
45535;DHT22;35892;48.798;9.698;2023-02-03T08:05:07;6.40;99.90
45535;DHT22;35892;48.798;9.698;2023-02-03T08:07:34;6.40;99.90
45535;DHT22;35892;48.798;9.698;2023-02-03T08:10:01;6.60;99.90
45535;DHT22;35892;48.798;9.698;2023-02-03T08:12:30;6.50;99.90
45535;DHT22;35892;48.798;9.698;2023-02-03T08:14:59;6.40;99.90
45535;DHT22;35892;48.798;9.698;2023-02-03T08:17:28;6.30;99.90
45535;DHT22;35892;48.798;9.698;2023-02-03T08:19:55;6.40;99.90
45535;DHT22;35892;48.798;9.698;2023-02-03T08:22:24;6.50;99.90
45535;DHT22;35892;48.798;9.698;2023-02-03T08:24:53;6.50;99.90
45535;DHT22;35892;48.798;9.698;2023-02-03T08:27:22;6.60;99.90
45535;DHT22;35892;48.798;9.698;2023-02-03T08:29:49;6.60;99.90
45535;DHT22;35892;48.798;9.698;2023-02-03T08:32:16;6.50;99.90
45535;DHT22;35892;48.798;9.698;2023-02-03T08:34:46;6.50;99.90
45535;DHT22;35892;48.798;9.698;2023-02-03T08:37:19;6.50;99.90
45535;DHT22;35892;48.798;9.698;2023-02-03T08:39:46;6.50;99.90
45535;DHT22;35892;48.798;9.698;2023-02-03T08:42:15;6.60;99.90
45535;DHT22;35892;48.798;9.698;2023-02-03T08:44:41;6.70;99.90
45535;DHT22;35892;48.798;9.698;2023-02-03T08:47:09;6.60;99.90
45535;DHT22;35892;48.798;9.698;2023-02-03T08:49:41;6.50;99.90
45535;DHT22;35892;48.798;9.698;2023-02-03T08:52:09;6.50;99.90
45535;DHT22;35892;48.798;9.698;2023-02-03T08:54:36;6.50;99.90
45535;DHT22;35892;48.798;9.698;2023-02-03T08:57:03;6.50;99.90
45535;DHT22;35892;48.798;9.698;2023-02-03T08:59:32;6.50;99.90
45535;DHT22;35892;48.798;9.698;2023-02-03T09:02:02;6.60;99.90
45535;DHT22;35892;48.798;9.698;2023-02-03T09:04:29;6.60;99.90
45535;DHT22;35892;48.798;9.698;2023-02-03T09:06:59;6.70;99.90
45535;DHT22;35892;48.798;9.698;2023-02-03T09:09:26;6.70;99.90
45535;DHT22;35892;48.798;9.698;2023-02-03T09:11:56;6.60;99.90
45535;DHT22;35892;48.798;9.698;2023-02-03T09:14:30;6.80;99.90
45535;DHT22;35892;48.798;9.698;2023-02-03T09:16:59;6.70;99.90
45535;DHT22;35892;48.798;9.698;2023-02-03T09:19:25;6.80;99.90
45535;DHT22;35892;48.798;9.698;2023-02-03T09:21:52;6.80;99.90
45535;DHT22;35892;48.798;9.698;2023-02-03T09:24:19;6.80;99.90
45535;DHT22;35892;48.798;9.698;2023-02-03T09:26:46;6.80;99.90
45535;DHT22;35892;48.798;9.698;2023-02-03T09:29:12;6.90;99.90
45535;DHT22;35892;48.798;9.698;2023-02-03T09:31:39;6.90;99.90
45535;DHT22;35892;48.798;9.698;2023-02-03T09:34:06;6.80;99.90
45535;DHT22;35892;48.798;9.698;2023-02-03T09:36:33;6.90;99.90
45535;DHT22;35892;48.798;9.698;2023-02-03T09:39:03;6.80;99.90
45535;DHT22;35892;48.798;9.698;2023-02-03T09:44:02;6.80;99.90
45535;DHT22;35892;48.798;9.698;2023-02-03T09:46:39;6.80;99.90
45535;DHT22;35892;48.798;9.698;2023-02-03T09:51:44;6.80;99.90
45535;DHT22;35892;48.798;9.698;2023-02-03T09:54:24;6.80;99.90
45535;DHT22;35892;48.798;9.698;2023-02-03T09:56:52;6.90;99.90
45535;DHT22;35892;48.798;9.698;2023-02-03T09:59:23;6.90;99.90
45535;DHT22;35892;48.798;9.698;2023-02-03T10:01:54;7.00;99.90
45535;DHT22;35892;48.798;9.698;2023-02-03T10:14:59;7.20;99.90
45535;DHT22;35892;48.798;9.698;2023-02-03T10:17:40;7.30;99.90
45535;DHT22;35892;48.798;9.698;2023-02-03T10:22:45;7.30;99.90
45535;DHT22;35892;48.798;9.698;2023-02-03T10:27:40;7.50;99.90
45535;DHT22;35892;48.798;9.698;2023-02-03T10:32:35;7.50;99.90
45535;DHT22;35892;48.798;9.698;2023-02-03T10:35:04;7.50;99.90
45535;DHT22;35892;48.798;9.698;2023-02-03T10:37:37;7.50;99.90
45535;DHT22;35892;48.798;9.698;2023-02-03T10:40:10;7.50;99.90
45535;DHT22;35892;48.798;9.698;2023-02-03T10:42:37;7.60;99.90
45535;DHT22;35892;48.798;9.698;2023-02-03T10:45:22;7.50;99.90
45535;DHT22;35892;48.798;9.698;2023-02-03T10:47:50;7.50;99.90
45535;DHT22;35892;48.798;9.698;2023-02-03T10:50:19;7.60;99.90
45535;DHT22;35892;48.798;9.698;2023-02-03T10:52:46;7.60;99.90
45535;DHT22;35892;48.798;9.698;2023-02-03T10:57:52;7.60;99.90
45535;DHT22;35892;48.798;9.698;2023-02-03T11:02:59;7.70;99.90
45535;DHT22;35892;48.798;9.698;2023-02-03T11:05:28;7.60;99.90
45535;DHT22;35892;48.798;9.698;2023-02-03T11:07:57;7.60;99.90
45535;DHT22;35892;48.798;9.698;2023-02-03T11:10:25;7.60;99.90
45535;DHT22;35892;48.798;9.698;2023-02-03T11:20:55;7.70;99.90
45535;DHT22;35892;48.798;9.698;2023-02-03T11:23:22;7.80;99.90
45535;DHT22;35892;48.798;9.698;2023-02-03T11:25:49;7.90;99.90
45535;DHT22;35892;48.798;9.698;2023-02-03T11:28:21;7.90;99.90
45535;DHT22;35892;48.798;9.698;2023-02-03T11:30:58;7.80;99.90
45535;DHT22;35892;48.798;9.698;2023-02-03T11:33:25;7.80;99.90
45535;DHT22;35892;48.798;9.698;2023-02-03T11:35:56;7.80;99.90
45535;DHT22;35892;48.798;9.698;2023-02-03T11:38:33;7.80;99.90
45535;DHT22;35892;48.798;9.698;2023-02-03T11:41:02;7.80;99.90
45535;DHT22;35892;48.798;9.698;2023-02-03T11:43:28;7.80;99.90
45535;DHT22;35892;48.798;9.698;2023-02-03T11:46:02;7.80;99.90
45535;DHT22;35892;48.798;9.698;2023-02-03T11:48:37;7.90;99.90
45535;DHT22;35892;48.798;9.698;2023-02-03T11:51:12;8.00;99.90
45535;DHT22;35892;48.798;9.698;2023-02-03T11:59:14;8.10;99.90
45535;DHT22;35892;48.798;9.698;2023-02-03T12:15:00;7.90;99.90
45535;DHT22;35892;48.798;9.698;2023-02-03T12:17:48;7.80;99.90
45535;DHT22;35892;48.798;9.698;2023-02-03T12:20:24;7.80;99.90
45535;DHT22;35892;48.798;9.698;2023-02-03T12:25:57;7.80;99.90
45535;DHT22;35892;48.798;9.698;2023-02-03T12:33:59;7.80;99.90
45535;DHT22;35892;48.798;9.698;2023-02-03T12:37:41;7.80;99.90
45535;DHT22;35892;48.798;9.698;2023-02-03T12:39:29;7.80;99.90
45535;DHT22;35892;48.798;9.698;2023-02-03T12:41:59;7.80;99.90
45535;DHT22;35892;48.798;9.698;2023-02-03T12:44:47;7.80;99.90
45535;DHT22;35892;48.798;9.698;2023-02-03T12:49:45;7.90;99.90
45535;DHT22;35892;48.798;9.698;2023-02-03T12:57:23;7.80;99.90
45535;DHT22;35892;48.798;9.698;2023-02-03T12:59:58;7.80;99.90
45535;DHT22;35892;48.798;9.698;2023-02-03T13:02:31;7.80;99.90
45535;DHT22;35892;48.798;9.698;2023-02-03T13:05:37;7.80;99.90
45535;DHT22;35892;48.798;9.698;2023-02-03T13:07:58;7.70;99.90
45535;DHT22;35892;48.798;9.698;2023-02-03T13:12:58;7.80;99.90
45535;DHT22;35892;48.798;9.698;2023-02-03T13:15:26;7.80;99.90
45535;DHT22;35892;48.798;9.698;2023-02-03T13:17:56;7.70;99.90
45535;DHT22;35892;48.798;9.698;2023-02-03T13:20:25;7.70;99.90
45535;DHT22;35892;48.798;9.698;2023-02-03T13:22:54;7.60;99.90
45535;DHT22;35892;48.798;9.698;2023-02-03T13:25:26;7.60;99.90
45535;DHT22;35892;48.798;9.698;2023-02-03T13:43:18;7.80;99.90
45535;DHT22;35892;48.798;9.698;2023-02-03T13:46:03;7.70;99.90
45535;DHT22;35892;48.798;9.698;2023-02-03T13:48:34;7.70;99.90
45535;DHT22;35892;48.798;9.698;2023-02-03T13:53:41;7.70;99.90
45535;DHT22;35892;48.798;9.698;2023-02-03T13:58:46;7.90;99.90
45535;DHT22;35892;48.798;9.698;2023-02-03T14:03:50;8.00;99.90
45535;DHT22;35892;48.798;9.698;2023-02-03T14:07:19;7.90;99.90
45535;DHT22;35892;48.798;9.698;2023-02-03T14:11:56;7.80;99.90
45535;DHT22;35892;48.798;9.698;2023-02-03T14:17:03;7.70;99.90
45535;DHT22;35892;48.798;9.698;2023-02-03T14:22:00;7.80;99.90
45535;DHT22;35892;48.798;9.698;2023-02-03T14:24:28;7.80;99.90
45535;DHT22;35892;48.798;9.698;2023-02-03T14:26:56;7.80;99.90
45535;DHT22;35892;48.798;9.698;2023-02-03T14:29:42;7.90;99.90
45535;DHT22;35892;48.798;9.698;2023-02-03T14:32:09;8.00;99.90
45535;DHT22;35892;48.798;9.698;2023-02-03T14:34:37;7.90;99.90
45535;DHT22;35892;48.798;9.698;2023-02-03T14:49:43;8.10;99.90
45535;DHT22;35892;48.798;9.698;2023-02-03T15:02:24;8.10;99.90
45535;DHT22;35892;48.798;9.698;2023-02-03T15:07:38;8.10;99.90
45535;DHT22;35892;48.798;9.698;2023-02-03T15:10:20;8.20;99.90
45535;DHT22;35892;48.798;9.698;2023-02-03T15:12:51;8.20;99.90
45535;DHT22;35892;48.798;9.698;2023-02-03T15:15:19;8.20;99.90
45535;DHT22;35892;48.798;9.698;2023-02-03T15:17:48;8.20;99.90
45535;DHT22;35892;48.798;9.698;2023-02-03T15:22:50;8.20;99.90
45535;DHT22;35892;48.798;9.698;2023-02-03T15:25:20;8.20;99.90
45535;DHT22;35892;48.798;9.698;2023-02-03T15:27:50;8.30;99.90
45535;DHT22;35892;48.798;9.698;2023-02-03T15:30:20;8.30;99.90
45535;DHT22;35892;48.798;9.698;2023-02-03T15:35:34;8.20;99.90
45535;DHT22;35892;48.798;9.698;2023-02-03T15:38:05;8.30;99.90
45535;DHT22;35892;48.798;9.698;2023-02-03T15:40:37;8.30;99.90
45535;DHT22;35892;48.798;9.698;2023-02-03T15:43:12;8.40;99.90
45535;DHT22;35892;48.798;9.698;2023-02-03T15:48:16;8.40;99.90
45535;DHT22;35892;48.798;9.698;2023-02-03T15:50:49;8.30;99.90
45535;DHT22;35892;48.798;9.698;2023-02-03T15:53:25;8.40;99.90
45535;DHT22;35892;48.798;9.698;2023-02-03T15:56:17;8.30;99.90
45535;DHT22;35892;48.798;9.698;2023-02-03T15:58:45;8.30;99.90
45535;DHT22;35892;48.798;9.698;2023-02-03T16:01:13;8.30;99.90
45535;DHT22;35892;48.798;9.698;2023-02-03T16:03:48;8.20;99.90
45535;DHT22;35892;48.798;9.698;2023-02-03T16:06:19;8.00;99.90
45535;DHT22;35892;48.798;9.698;2023-02-03T16:08:50;8.10;99.90
45535;DHT22;35892;48.798;9.698;2023-02-03T16:13:51;8.10;99.90
45535;DHT22;35892;48.798;9.698;2023-02-03T16:16:20;8.10;99.90
45535;DHT22;35892;48.798;9.698;2023-02-03T16:18:57;8.00;99.90
45535;DHT22;35892;48.798;9.698;2023-02-03T16:24:35;7.80;99.90
45535;DHT22;35892;48.798;9.698;2023-02-03T16:29:48;7.80;99.90
45535;DHT22;35892;48.798;9.698;2023-02-03T16:32:33;7.70;99.90
45535;DHT22;35892;48.798;9.698;2023-02-03T16:35:19;7.60;99.90
45535;DHT22;35892;48.798;9.698;2023-02-03T16:38:05;7.40;99.90
45535;DHT22;35892;48.798;9.698;2023-02-03T16:40:50;7.50;99.90
45535;DHT22;35892;48.798;9.698;2023-02-03T16:43:35;7.50;99.90
45535;DHT22;35892;48.798;9.698;2023-02-03T16:46:20;7.50;99.90
45535;DHT22;35892;48.798;9.698;2023-02-03T16:49:05;7.50;99.90
45535;DHT22;35892;48.798;9.698;2023-02-03T16:51:51;7.40;99.90
45535;DHT22;35892;48.798;9.698;2023-02-03T16:54:19;7.40;99.90
45535;DHT22;35892;48.798;9.698;2023-02-03T16:56:46;7.40;99.90
45535;DHT22;35892;48.798;9.698;2023-02-03T16:59:13;7.50;99.90
45535;DHT22;35892;48.798;9.698;2023-02-03T17:01:39;7.50;99.90
45535;DHT22;35892;48.798;9.698;2023-02-03T17:04:06;7.40;99.90
45535;DHT22;35892;48.798;9.698;2023-02-03T17:06:37;7.50;99.90
45535;DHT22;35892;48.798;9.698;2023-02-03T17:09:08;7.50;99.90
45535;DHT22;35892;48.798;9.698;2023-02-03T17:11:35;7.50;99.90
45535;DHT22;35892;48.798;9.698;2023-02-03T17:14:02;7.50;99.90
45535;DHT22;35892;48.798;9.698;2023-02-03T17:16:31;7.40;99.90
45535;DHT22;35892;48.798;9.698;2023-02-03T17:18:58;7.40;99.90
45535;DHT22;35892;48.798;9.698;2023-02-03T17:21:26;7.50;99.90
45535;DHT22;35892;48.798;9.698;2023-02-03T17:23:53;7.60;99.90
45535;DHT22;35892;48.798;9.698;2023-02-03T17:26:22;7.50;99.90
45535;DHT22;35892;48.798;9.698;2023-02-03T17:28:49;7.70;99.90
45535;DHT22;35892;48.798;9.698;2023-02-03T17:31:17;7.60;99.90
45535;DHT22;35892;48.798;9.698;2023-02-03T17:33:48;7.60;99.90
45535;DHT22;35892;48.798;9.698;2023-02-03T17:36:18;7.70;99.90
45535;DHT22;35892;48.798;9.698;2023-02-03T17:38:51;7.70;99.90
45535;DHT22;35892;48.798;9.698;2023-02-03T17:41:38;7.70;99.90
45535;DHT22;35892;48.798;9.698;2023-02-03T17:44:22;7.70;99.90
45535;DHT22;35892;48.798;9.698;2023-02-03T17:47:06;7.70;99.90
45535;DHT22;35892;48.798;9.698;2023-02-03T17:49:50;7.70;99.90
45535;DHT22;35892;48.798;9.698;2023-02-03T17:52:34;7.70;99.90
45535;DHT22;35892;48.798;9.698;2023-02-03T17:55:21;7.80;99.90
45535;DHT22;35892;48.798;9.698;2023-02-03T17:57:48;7.80;99.90
45535;DHT22;35892;48.798;9.698;2023-02-03T18:00:14;7.80;99.90
45535;DHT22;35892;48.798;9.698;2023-02-03T18:02:41;7.70;99.90
45535;DHT22;35892;48.798;9.698;2023-02-03T18:05:08;7.70;99.90
45535;DHT22;35892;48.798;9.698;2023-02-03T18:07:35;7.70;99.90
45535;DHT22;35892;48.798;9.698;2023-02-03T18:10:02;7.70;99.90
45535;DHT22;35892;48.798;9.698;2023-02-03T18:12:28;7.80;99.90
45535;DHT22;35892;48.798;9.698;2023-02-03T18:14:55;7.70;99.90
45535;DHT22;35892;48.798;9.698;2023-02-03T18:17:25;7.70;99.90
45535;DHT22;35892;48.798;9.698;2023-02-03T18:19:52;7.70;99.90
45535;DHT22;35892;48.798;9.698;2023-02-03T18:22:27;7.70;99.90
45535;DHT22;35892;48.798;9.698;2023-02-03T18:24:53;7.70;99.90
45535;DHT22;35892;48.798;9.698;2023-02-03T18:27:21;7.70;99.90
45535;DHT22;35892;48.798;9.698;2023-02-03T18:29:47;7.60;99.90
45535;DHT22;35892;48.798;9.698;2023-02-03T18:32:16;7.70;99.90
45535;DHT22;35892;48.798;9.698;2023-02-03T18:34:43;7.80;99.90
45535;DHT22;35892;48.798;9.698;2023-02-03T18:37:10;7.70;99.90
45535;DHT22;35892;48.798;9.698;2023-02-03T18:39:39;7.80;99.90
45535;DHT22;35892;48.798;9.698;2023-02-03T18:42:06;7.70;99.90
45535;DHT22;35892;48.798;9.698;2023-02-03T18:44:32;7.70;99.90
45535;DHT22;35892;48.798;9.698;2023-02-03T18:46:59;7.70;99.90
45535;DHT22;35892;48.798;9.698;2023-02-03T18:49:38;7.60;99.90
45535;DHT22;35892;48.798;9.698;2023-02-03T18:52:06;7.50;99.90